WetterOnline ( https://www.wetteronline.de )

Wetter aktuell Niederstetten

Aktuelles Wetter: Niederstetten (468m)

6-stündlich | Neueste Meldungen
Ortszeit Temperatur Wetter
Do, 22.02. 1:00 9.1° C bedeckt
Mi, 21.02. 19:00 8.3° C bewölkt
Mi, 21.02. 13:00 9.0° C wolkig
Mi, 21.02. 7:00 5.3° C bewölkt
Mi, 21.02. 1:00 5.5° C wolkig
Di, 20.02. 19:00 6.1° C wolkig
Di, 20.02. 13:00 6.7° C wolkig
Di, 20.02. 7:00 4.8° C bewölkt
Ortszeit Temperatur Wetter
Do, 22.02. 6:00 6.8° C leichter Regen
Do, 22.02. 5:00 6.8° C leichter Regen
Do, 22.02. 4:00 6.9° C leichter Regen
Do, 22.02. 3:00 7.2° C bedeckt
Do, 22.02. 2:00 8.1° C leichter Regen
Do, 22.02. 1:00 9.1° C bedeckt, nach Regen
Do, 22.02. 0:00 9.1° C leichter Regen
Ortszeit Relative Feuchte Sichtweite
Do, 22.02. 1:00 59% 40 km
Mi, 21.02. 19:00 55% 50 km
Mi, 21.02. 13:00 61% 40 km
Mi, 21.02. 7:00 87% 20 km
Mi, 21.02. 1:00 83% 35 km
Di, 20.02. 19:00 75% 50 km
Di, 20.02. 13:00 69% 40 km
Di, 20.02. 7:00 91% 20 km
Ortszeit Relative Feuchte Sichtweite
Do, 22.02. 6:00 93% 18 km
Do, 22.02. 5:00 91% 12 km
Do, 22.02. 4:00 87% 20 km
Do, 22.02. 3:00 84% 25 km
Do, 22.02. 2:00 71% 28 km
Do, 22.02. 1:00 59% 40 km
Do, 22.02. 0:00 58% 35 km
Ortszeit Niederschlagsmenge Niederschlagsart
Do, 22.02. 1:00 keine Meldung -
Mi, 21.02. 19:00 0.0 l/m2 in 12 Std. -
Mi, 21.02. 13:00 keine Meldung -
Mi, 21.02. 7:00 0.3 l/m2 in 12 Std. Regen
Mi, 21.02. 1:00 keine Meldung -
Di, 20.02. 19:00 0.1 l/m2 in 12 Std. -
Di, 20.02. 13:00 keine Meldung -
Di, 20.02. 7:00 1 l/m2 in 12 Std. Sprühregen
Ortszeit Niederschlagsmenge Niederschlagsart
Do, 22.02. 6:00 keine Meldung -
Do, 22.02. 5:00 keine Meldung -
Do, 22.02. 4:00 keine Meldung -
Do, 22.02. 3:00 keine Meldung -
Do, 22.02. 2:00 keine Meldung -
Do, 22.02. 1:00 keine Meldung -
Do, 22.02. 0:00 keine Meldung -
Ortszeit Stärke Spitze Richtung
km/h Bft. km/h Grad Sektor
Do, 22.02. 1:00 18 3 61 260° W
Mi, 21.02. 19:00 18 3 - 190° S
Mi, 21.02. 13:00 22 4 - 240° SW
Mi, 21.02. 7:00 18 3 - 250° W
Mi, 21.02. 1:00 18 3 - 240° SW
Di, 20.02. 19:00 14 3 - 250° W
Di, 20.02. 13:00 25 4 - 280° W
Di, 20.02. 7:00 14 3 - 290° W
Ortszeit Stärke Spitze Richtung
km/h Bft. km/h Grad Sektor
Do, 22.02. 6:00 22 4 - 220° SW
Do, 22.02. 5:00 25 4 - 220° SW
Do, 22.02. 4:00 18 3 50 220° SW
Do, 22.02. 3:00 25 4 - 220° SW
Do, 22.02. 2:00 29 5 50 230° SW
Do, 22.02. 1:00 18 3 61 260° W
Do, 22.02. 0:00 29 5 61 240° SW
Ortszeit Untergrenze Bedeckung Gattung
total tief tief mittel hoch
Do, 22.02. 1:00 1800 m 8/8 8/8 Sc - -
Mi, 21.02. 19:00 1800 m 7/8 1/8 Sc Ns -
Mi, 21.02. 13:00 480 m 7/8 1/8 Cu Ac Ci
Mi, 21.02. 7:00 540 m 7/8 6/8 Sc As -
Mi, 21.02. 1:00 1800 m 7/8 5/8 Sc Ac -
Di, 20.02. 19:00 1500 m 7/8 1/8 Sc As -
Di, 20.02. 13:00 540 m 6/8 4/8 Cu - Ci
Di, 20.02. 7:00 270 m 7/8 7/8 Cu - -
Ortszeit Bedeckungsgrad in Achtel und Wolkenuntergrenze
Do, 22.02. 6:00 5(510m) 8(840m)
Do, 22.02. 5:00 8(750m)
Do, 22.02. 4:00 8(780m)
Do, 22.02. 3:00 8(900m)
Do, 22.02. 2:00 8(960m)
Do, 22.02. 1:00 8(1800m)
Do, 22.02. 0:00 8(1200m)
Ortszeit Luftdruck NN (hPa) Tendenz (hPa in 3 Std.)
Do, 22.02. 1:00 1009 - 3,2
Mi, 21.02. 19:00 1014 - 2,9
Mi, 21.02. 13:00 1020 - 2,1
Mi, 21.02. 7:00 1024 - 1,4
Mi, 21.02. 1:00 1028 - 0,9
Di, 20.02. 19:00 1029 0,0
Di, 20.02. 13:00 1030 + 0,3
Di, 20.02. 7:00 1029 + 1,6
Ortszeit Luftdruck NN (hPa) Tendenz (hPa in 3 Std.)
Do, 22.02. 6:00 1004 - 2,6
Do, 22.02. 5:00 1005 - 3,2
Do, 22.02. 4:00 1005 - 3,5
Do, 22.02. 3:00 1007 - 3,7
Do, 22.02. 2:00 1008 - 3,4
Do, 22.02. 1:00 1009 - 3,2
Do, 22.02. 0:00 1010 - 2,5
Ortszeit Schneehöhe (cm)
Do, 22.02. 1:00 -
Mi, 21.02. 19:00 0
Mi, 21.02. 13:00 -
Mi, 21.02. 7:00 0
Mi, 21.02. 1:00 -
Di, 20.02. 19:00 0
Di, 20.02. 13:00 -
Di, 20.02. 7:00 0
Ortszeit Schneehöhe (cm)
Do, 22.02. 6:00 -
Do, 22.02. 5:00 -
Do, 22.02. 4:00 -
Do, 22.02. 3:00 -
Do, 22.02. 2:00 -
Do, 22.02. 1:00 -
Do, 22.02. 0:00 -
Link zu dieser Seite / Seite empfehlen

Das Wetter in ...